Главная страница
METAR-TAF:

METAR-TAF

Аэропорты :

Эрбиль, Ирак

широта: 36-14-15N, долгота: 43-57-47E, высота над уровнем моря: 415 м

Текущие метеонаблюдения

Эта сводка был подготовлена 1 час и 39 минут назад, в 17:00 UTC
Ветер 9 Узел от западный
Температура 28°C
Влажность 27%
Давление 1014 hPa
Видимость 10 км и более
Нет облачности ниже 1500 м, и нет кучево-дождевой облачности

METAR: ORER 241700Z 26009KT CAVOK 28/07 Q1014

Время: 21:39 (18:39 UTC)

Прогноз

Эта сводка был подготовлена 14 часа и 39 минут назад, в 04:00 UTC
Прогноз действительный с 24-го 06 UTC до 25-го 06 UTC
Ветер 3 Узел от западный
Видимость: 7000 м
изменения
С 24-го 09 UTC до 24-го 11 UTC
Ветер 12 Узел от западный-юго-западный

TAF: ORER 240400Z 2406/2506 26003KT 7000 NSC BECMG 2409/2411 24012KT

Метеонаблюдения и прогнозы для более 4000 аэропортов (сводки METAR и TAF).

Имеющиеся станции представлены на карте желтыми и красными точками.

Чтобы увидеть название станции, наведите на нее мышь.

Затем щелкните, чтобы увидеть метеонаблюдения и метеопрогнозы.

Управление картой: чтобы увеличить масштаб, щелкните зеленые кнопки с черным крестиком; чтобы уменьшить масштаб, щелкните зеленую кнопку с тире; для просмотра соседних карт щелкайте зеленые стрелки.


METAR-TAF: